createdAt,value
2018-01-06T00:01:40.856Z,87.20
2018-01-06T00:04:09.419Z,88.10
2018-01-06T00:06:37.245Z,88.10
2018-01-06T00:09:06.385Z,88.60
2018-01-06T00:11:34.573Z,88.50
2018-01-06T00:14:03.097Z,88.60
2018-01-06T00:16:31.898Z,88.50
2018-01-06T00:19:00.273Z,87.90
2018-01-06T00:21:28.161Z,87.20
2018-01-06T00:23:56.769Z,86.20
2018-01-06T00:26:24.771Z,86.20
2018-01-06T00:28:54.191Z,85.50
2018-01-06T00:31:22.252Z,85.00
2018-01-06T00:33:51.236Z,83.40
2018-01-06T00:36:19.295Z,83.20
2018-01-06T00:38:47.685Z,83.30
2018-01-06T00:41:23.173Z,83.20
2018-01-06T00:43:51.112Z,82.80
2018-01-06T00:46:19.924Z,83.70
2018-01-06T00:48:49.558Z,83.80
2018-01-06T00:51:17.521Z,83.50
2018-01-06T00:53:45.716Z,83.50
2018-01-06T00:56:16.886Z,83.60
2018-01-06T00:58:45.161Z,83.50
2018-01-06T01:01:17.357Z,84.00
2018-01-06T01:03:45.635Z,84.40
2018-01-06T01:06:20.867Z,84.90
2018-01-06T01:08:50.843Z,84.90
2018-01-06T01:11:18.782Z,85.00
2018-01-06T01:13:47.393Z,84.70
2018-01-06T01:16:24.269Z,84.70
2018-01-06T01:18:53.743Z,84.70
2018-01-06T01:21:23.831Z,84.60
2018-01-06T01:23:52.037Z,85.00
2018-01-06T01:26:22.900Z,85.60
2018-01-06T01:28:52.366Z,85.60
2018-01-06T01:31:20.516Z,85.60
2018-01-06T01:33:48.273Z,85.40
2018-01-06T01:36:16.180Z,85.50
2018-01-06T01:38:51.736Z,85.60
2018-01-06T01:41:19.632Z,85.90
2018-01-06T01:43:47.546Z,86.30
2018-01-06T01:46:16.045Z,86.60
2018-01-06T01:48:43.879Z,86.70
2018-01-06T01:51:11.956Z,86.60
2018-01-06T01:53:40.687Z,86.60
2018-01-06T01:56:10.253Z,86.80
2018-01-06T01:58:43.335Z,86.80
2018-01-06T02:01:12.271Z,86.80
2018-01-06T02:03:40.407Z,86.80
2018-01-06T02:06:11.917Z,86.80
2018-01-06T02:08:40.437Z,86.70
2018-01-06T02:11:08.244Z,86.50
2018-01-06T02:13:37.177Z,86.80
2018-01-06T02:16:05.593Z,86.70
2018-01-06T02:18:34.168Z,87.20
2018-01-06T02:21:04.317Z,87.00
2018-01-06T02:23:32.175Z,87.20
2018-01-06T02:26:01.070Z,87.20
2018-01-06T02:28:28.984Z,87.20
2018-01-06T02:31:00.519Z,87.20
2018-01-06T02:33:29.115Z,87.30
2018-01-06T02:35:58.528Z,87.50
2018-01-06T02:38:27.564Z,87.50
2018-01-06T02:40:55.820Z,87.70
2018-01-06T02:43:24.397Z,87.80
2018-01-06T02:45:52.481Z,87.80
2018-01-06T02:48:20.290Z,87.80
2018-01-06T02:50:49.058Z,87.80
2018-01-06T02:53:17.050Z,87.90
2018-01-06T02:55:45.757Z,87.90
2018-01-06T02:58:14.670Z,87.90
2018-01-06T03:00:42.999Z,87.90
2018-01-06T03:03:11.409Z,87.90
2018-01-06T03:05:40.003Z,87.70
2018-01-06T03:08:08.798Z,87.70
2018-01-06T03:10:36.962Z,87.70
2018-01-06T03:13:04.877Z,87.80
2018-01-06T03:15:34.532Z,87.70
2018-01-06T03:18:02.502Z,87.50
2018-01-06T03:20:30.477Z,87.70
2018-01-06T03:22:59.291Z,87.80
2018-01-06T03:25:27.375Z,87.70
2018-01-06T03:27:56.706Z,87.50
2018-01-06T03:30:34.522Z,87.50
2018-01-06T03:33:11.303Z,87.40
2018-01-06T03:35:47.949Z,87.20
2018-01-06T03:38:15.850Z,87.10
2018-01-06T03:40:44.955Z,87.40
2018-01-06T03:43:13.631Z,87.40
2018-01-06T03:45:41.509Z,87.40
2018-01-06T03:48:15.930Z,87.70
2018-01-06T03:50:44.663Z,87.60
2018-01-06T03:53:12.599Z,87.60
2018-01-06T03:55:40.487Z,87.60
2018-01-06T03:58:08.711Z,87.60
2018-01-06T04:00:37.441Z,87.70
2018-01-06T04:03:07.642Z,87.60
2018-01-06T04:05:35.761Z,87.70
2018-01-06T04:08:03.927Z,87.80
2018-01-06T04:10:32.023Z,87.80
2018-01-06T04:13:00.145Z,87.90
2018-01-06T04:15:29.104Z,87.90
2018-01-06T04:17:57.306Z,87.90
2018-01-06T04:20:26.163Z,88.00
2018-01-06T04:22:54.381Z,88.10
2018-01-06T04:25:22.584Z,88.10
2018-01-06T04:27:55.057Z,88.00
2018-01-06T04:30:24.532Z,88.10
2018-01-06T04:32:52.905Z,88.10
2018-01-06T04:35:22.731Z,88.10
2018-01-06T04:37:51.438Z,88.10
2018-01-06T04:40:19.950Z,88.00
2018-01-06T04:42:48.108Z,87.90
2018-01-06T04:45:18.103Z,87.90
2018-01-06T04:47:47.446Z,87.90
2018-01-06T04:50:16.216Z,87.90
2018-01-06T04:52:45.581Z,87.90
2018-01-06T04:55:13.975Z,88.00
2018-01-06T04:57:42.361Z,88.00
2018-01-06T05:00:19.449Z,87.80
2018-01-06T05:02:51.660Z,87.80
2018-01-06T05:05:20.098Z,87.90
2018-01-06T05:07:48.234Z,88.00
2018-01-06T05:10:17.090Z,88.10
2018-01-06T05:12:45.328Z,88.00
2018-01-06T05:15:14.410Z,87.80
2018-01-06T05:18:21.823Z,87.90
2018-01-06T05:20:57.945Z,87.70
2018-01-06T05:23:41.666Z,87.70
2018-01-06T05:26:10.025Z,87.60
2018-01-06T05:28:38.332Z,87.50
2018-01-06T05:31:10.740Z,87.50
2018-01-06T05:33:42.625Z,87.10
2018-01-06T05:36:11.851Z,86.90
2018-01-06T05:38:40.327Z,86.90
2018-01-06T05:41:09.031Z,86.90
2018-01-06T05:43:37.187Z,87.00
2018-01-06T05:46:05.469Z,87.10
2018-01-06T05:48:33.648Z,87.10
2018-01-06T05:51:01.984Z,87.10
2018-01-06T05:53:30.276Z,87.10
2018-01-06T05:55:58.391Z,87.10
2018-01-06T05:58:26.734Z,86.90
2018-01-06T06:00:54.865Z,86.90
2018-01-06T06:03:25.484Z,86.90
2018-01-06T06:05:53.678Z,87.00
2018-01-06T06:08:22.195Z,87.20
2018-01-06T06:10:50.356Z,87.40
2018-01-06T06:13:18.521Z,87.60
2018-01-06T06:19:08.154Z,87.90
2018-01-06T06:21:36.372Z,87.90
2018-01-06T06:24:04.493Z,87.90
2018-01-06T06:26:55.688Z,87.70
2018-01-06T06:29:24.234Z,87.40
2018-01-06T06:31:52.361Z,87.60
2018-01-06T06:34:20.465Z,87.60
2018-01-06T06:36:48.587Z,87.70
2018-01-06T06:39:17.291Z,87.70
2018-01-06T06:41:45.617Z,84.00
2018-01-06T06:44:13.954Z,83.90
2018-01-06T06:46:43.085Z,84.00
2018-01-06T06:49:11.674Z,84.00
2018-01-06T06:51:39.920Z,84.00
2018-01-06T06:54:08.129Z,84.10
2018-01-06T06:56:36.652Z,84.30
2018-01-06T06:59:05.650Z,84.40
2018-01-06T07:01:34.077Z,84.50
2018-01-06T07:04:04.700Z,84.50
2018-01-06T07:06:33.649Z,84.50
2018-01-06T07:09:02.778Z,84.50
2018-01-06T07:11:34.589Z,84.40
2018-01-06T07:14:04.134Z,84.10
2018-01-06T07:16:32.907Z,84.10
2018-01-06T07:19:02.897Z,84.00
2018-01-06T07:21:31.219Z,84.10
2018-01-06T07:24:00.209Z,84.20
2018-01-06T07:26:28.951Z,84.20
2018-01-06T07:28:59.490Z,84.10
2018-01-06T07:31:27.651Z,84.10
2018-01-06T07:33:55.901Z,84.00
2018-01-06T07:36:24.891Z,84.30
2018-01-06T07:38:53.554Z,84.30
2018-01-06T07:41:24.496Z,84.30
2018-01-06T07:43:52.739Z,84.40
2018-01-06T07:46:22.170Z,84.50
2018-01-06T07:48:50.376Z,84.40
2018-01-06T07:51:18.564Z,84.10
2018-01-06T07:53:46.779Z,84.00
2018-01-06T07:56:17.308Z,83.80
2018-01-06T07:58:45.914Z,83.70
2018-01-06T08:01:14.294Z,83.90
2018-01-06T08:03:42.461Z,83.90
2018-01-06T08:06:10.952Z,84.00
2018-01-06T08:08:39.218Z,84.10
2018-01-06T08:11:10.149Z,84.10
2018-01-06T08:13:38.362Z,84.10
2018-01-06T08:16:07.514Z,84.10
2018-01-06T08:18:35.699Z,84.10
2018-01-06T08:21:03.886Z,84.00
2018-01-06T08:23:33.084Z,83.80
2018-01-06T08:26:01.220Z,83.50
2018-01-06T08:28:29.427Z,83.40
2018-01-06T08:30:57.598Z,83.00
2018-01-06T08:33:26.016Z,82.90
2018-01-06T08:35:54.153Z,82.80
2018-01-06T08:38:22.435Z,82.90
2018-01-06T08:40:53.175Z,83.20
2018-01-06T08:43:21.538Z,83.30
2018-01-06T08:45:49.764Z,83.40
2018-01-06T08:48:18.295Z,83.40
2018-01-06T08:50:47.981Z,83.40
2018-01-06T08:53:18.450Z,83.20
2018-01-06T08:55:47.129Z,83.00
2018-01-06T08:58:15.812Z,82.90
2018-01-06T09:01:00.237Z,82.70
2018-01-06T09:03:30.648Z,81.70
2018-01-06T09:05:59.220Z,81.70
2018-01-06T09:08:32.386Z,81.50
2018-01-06T09:11:00.761Z,81.70
2018-01-06T09:13:30.061Z,81.80
2018-01-06T09:15:58.660Z,81.90
2018-01-06T09:18:26.946Z,82.10
2018-01-06T09:20:55.262Z,82.00
2018-01-06T09:23:36.756Z,81.50
2018-01-06T09:26:05.673Z,81.40
2018-01-06T09:28:35.932Z,81.00
2018-01-06T09:31:04.488Z,80.30
2018-01-06T09:33:33.625Z,79.10
2018-01-06T09:36:02.304Z,78.70
2018-01-06T09:38:30.776Z,79.00
2018-01-06T09:40:58.913Z,78.30
2018-01-06T09:43:29.035Z,78.10
2018-01-06T09:45:58.416Z,77.70
2018-01-06T09:48:26.770Z,77.70
2018-01-06T09:50:55.114Z,77.80
2018-01-06T09:53:23.656Z,78.20
2018-01-06T09:55:52.573Z,77.90
2018-01-06T09:58:21.188Z,77.90
2018-01-06T10:00:49.904Z,77.00
2018-01-06T10:03:18.315Z,76.50
2018-01-06T10:05:56.132Z,76.90
2018-01-06T10:08:25.500Z,76.80
2018-01-06T10:10:53.776Z,76.40
2018-01-06T10:13:22.970Z,76.60
2018-01-06T10:15:54.442Z,76.10
2018-01-06T10:18:23.526Z,77.00
2018-01-06T10:20:53.353Z,77.00
2018-01-06T10:23:25.582Z,76.60
2018-01-06T10:25:55.502Z,76.10
2018-01-06T10:28:23.969Z,76.20
2018-01-06T10:30:52.545Z,76.60
2018-01-06T10:33:20.797Z,76.60
2018-01-06T10:35:49.631Z,76.70
2018-01-06T10:38:23.194Z,76.50
2018-01-06T10:40:51.582Z,76.50
2018-01-06T10:43:21.518Z,79.30
2018-01-06T10:45:50.244Z,80.10
2018-01-06T10:48:19.938Z,79.30
2018-01-06T10:50:49.498Z,78.60
2018-01-06T10:53:18.806Z,78.60
2018-01-06T10:55:47.673Z,77.90
2018-01-06T10:58:16.127Z,77.70
2018-01-06T11:00:50.645Z,77.70
2018-01-06T11:03:19.593Z,77.70
2018-01-06T11:05:47.982Z,77.70
2018-01-06T11:08:17.019Z,77.90
2018-01-06T11:10:45.654Z,76.70
2018-01-06T11:13:14.805Z,76.90
2018-01-06T11:15:43.522Z,75.00
2018-01-06T11:18:12.412Z,75.60
2018-01-06T11:20:40.904Z,77.30
2018-01-06T11:23:09.847Z,75.20
2018-01-06T11:25:38.548Z,75.20
2018-01-06T11:28:08.315Z,74.70
2018-01-06T11:30:37.699Z,75.40
2018-01-06T11:33:13.009Z,75.50
2018-01-06T11:35:41.240Z,75.80
2018-01-06T11:38:10.629Z,75.90
2018-01-06T11:40:40.605Z,75.80
2018-01-06T11:43:09.151Z,75.80
2018-01-06T11:45:40.524Z,75.20
2018-01-06T11:48:10.383Z,75.00
2018-01-06T11:50:40.457Z,74.90
2018-01-06T11:53:08.934Z,75.00
2018-01-06T11:55:38.304Z,75.20
2018-01-06T11:58:09.732Z,75.20
2018-01-06T12:00:44.376Z,75.20
2018-01-06T12:03:14.620Z,75.70
2018-01-06T12:05:43.432Z,75.70
2018-01-06T12:08:27.297Z,74.10
2018-01-06T12:10:58.013Z,74.80
2018-01-06T12:13:43.028Z,75.30
2018-01-06T12:16:15.890Z,75.80
2018-01-06T12:18:46.516Z,75.70
2018-01-06T12:21:17.262Z,75.80
2018-01-06T12:23:47.863Z,74.70
2018-01-06T12:26:18.116Z,74.60
2018-01-06T12:28:48.012Z,74.60
2018-01-06T12:31:19.542Z,74.70
2018-01-06T12:33:51.706Z,74.90
2018-01-06T12:36:21.094Z,74.60
2018-01-06T12:38:52.684Z,73.30
2018-01-06T12:41:26.364Z,73.30
2018-01-06T12:43:58.340Z,72.90
2018-01-06T12:46:32.736Z,72.60
2018-01-06T12:49:03.107Z,73.40
2018-01-06T12:51:34.940Z,73.40
2018-01-06T12:54:11.314Z,73.60
2018-01-06T12:56:54.756Z,73.10
2018-01-06T12:59:26.419Z,73.00
2018-01-06T13:02:02.074Z,73.10
2018-01-06T13:04:31.308Z,74.30
2018-01-06T13:07:03.561Z,74.70
2018-01-06T13:10:05.045Z,73.90
2018-01-06T13:12:38.072Z,73.20
2018-01-06T13:15:15.539Z,73.30
2018-01-06T13:17:48.627Z,74.30
2018-01-06T13:20:21.597Z,74.30
2018-01-06T13:22:51.342Z,74.70
2018-01-06T13:25:23.034Z,75.10
2018-01-06T13:27:54.732Z,75.90
2018-01-06T13:30:26.333Z,76.10
2018-01-06T13:33:06.491Z,75.70
2018-01-06T13:35:50.449Z,76.20
2018-01-06T13:38:20.171Z,76.20
2018-01-06T13:40:53.185Z,80.70
2018-01-06T13:43:24.564Z,80.70
2018-01-06T13:45:55.939Z,81.50
2018-01-06T13:48:35.591Z,82.80
2018-01-06T13:51:09.921Z,82.80
2018-01-06T13:53:42.502Z,83.70
2018-01-06T13:56:15.280Z,84.10
2018-01-06T13:58:52.668Z,84.30
2018-01-06T14:01:26.555Z,84.40
2018-01-06T14:04:02.494Z,84.80
2018-01-06T14:06:33.417Z,85.40
2018-01-06T14:09:08.563Z,85.80
2018-01-06T14:12:02.805Z,85.30
2018-01-06T14:14:36.306Z,85.70
2018-01-06T14:17:15.781Z,86.50
2018-01-06T14:19:50.543Z,86.40
2018-01-06T14:22:23.835Z,86.60
2018-01-06T14:24:56.887Z,86.80
2018-01-06T14:27:32.677Z,86.70
2018-01-06T14:30:03.702Z,86.50
2018-01-06T14:32:33.916Z,87.00
2018-01-06T14:35:05.741Z,86.20
2018-01-06T14:38:01.722Z,86.10
2018-01-06T14:40:32.828Z,86.00
2018-01-06T14:43:03.517Z,86.40
2018-01-06T14:45:35.226Z,86.50
2018-01-06T14:48:08.564Z,86.50
2018-01-06T14:50:39.380Z,86.40
2018-01-06T14:53:15.906Z,86.40
2018-01-06T14:55:49.368Z,86.40
2018-01-06T14:58:21.087Z,86.40
2018-01-06T15:00:52.080Z,86.50
2018-01-06T15:03:31.808Z,86.70
2018-01-06T15:06:07.907Z,86.40
2018-01-06T15:08:38.774Z,86.30
2018-01-06T15:11:11.196Z,86.50
2018-01-06T15:13:41.833Z,86.60
2018-01-06T15:16:11.185Z,86.70
2018-01-06T15:18:40.777Z,86.60
2018-01-06T15:21:17.543Z,87.00
2018-01-06T15:23:52.990Z,86.50
2018-01-06T15:26:24.276Z,85.70
2018-01-06T15:28:54.981Z,85.80
2018-01-06T15:31:25.382Z,86.10
2018-01-06T15:33:56.563Z,86.10
2018-01-06T15:36:28.418Z,85.50
2018-01-06T15:38:59.408Z,85.20
2018-01-06T15:41:29.060Z,84.70
2018-01-06T15:44:00.797Z,84.90
2018-01-06T15:46:31.440Z,84.80
2018-01-06T15:49:04.838Z,85.00
2018-01-06T15:51:37.456Z,85.40
2018-01-06T15:54:08.356Z,85.80
2018-01-06T15:56:38.876Z,86.10
2018-01-06T15:59:10.377Z,86.40
2018-01-06T16:01:40.688Z,86.90
2018-01-06T16:04:10.717Z,86.90
2018-01-06T16:06:45.218Z,87.10
2018-01-06T16:09:16.072Z,87.30
2018-01-06T16:11:47.878Z,87.60
2018-01-06T16:14:19.660Z,87.60
2018-01-06T16:16:50.834Z,87.60
2018-01-06T16:19:22.905Z,87.90
2018-01-06T16:21:54.124Z,87.90
2018-01-06T16:24:24.610Z,87.70
2018-01-06T16:26:58.986Z,87.60
2018-01-06T16:29:31.332Z,87.20
2018-01-06T16:32:03.604Z,87.20
2018-01-06T16:34:34.808Z,87.20
2018-01-06T16:37:09.521Z,87.00
2018-01-06T16:40:00.956Z,86.60
2018-01-06T16:42:30.760Z,86.60
2018-01-06T16:45:02.703Z,86.80
2018-01-06T16:47:33.565Z,87.00
2018-01-06T16:50:08.689Z,87.00
2018-01-06T16:52:43.008Z,86.60
2018-01-06T16:55:18.151Z,86.50
2018-01-06T16:57:50.180Z,86.50
2018-01-06T17:00:21.840Z,86.50
2018-01-06T17:02:52.275Z,86.30
2018-01-06T17:05:21.405Z,86.10
2018-01-06T17:07:51.481Z,85.20
2018-01-06T17:10:49.087Z,85.60
2018-01-06T17:13:19.352Z,85.90
2018-01-06T17:15:50.284Z,85.40
2018-01-06T17:18:23.492Z,85.70
2018-01-06T17:20:55.714Z,85.60
2018-01-06T17:23:27.694Z,85.30
2018-01-06T17:25:58.626Z,86.00
2018-01-06T17:28:31.487Z,85.90
2018-01-06T17:31:01.680Z,86.00
2018-01-06T17:33:31.604Z,85.90
2018-01-06T17:36:02.663Z,86.10
2018-01-06T17:38:44.594Z,86.10
2018-01-06T17:41:22.042Z,85.90
2018-01-06T17:43:57.776Z,85.90
2018-01-06T17:46:28.625Z,85.80
2018-01-06T17:49:01.647Z,86.30
2018-01-06T17:51:31.171Z,86.10
2018-01-06T17:54:16.854Z,85.90
2018-01-06T17:56:47.736Z,85.90
2018-01-06T17:59:18.496Z,86.50
2018-01-06T18:01:49.937Z,87.00
2018-01-06T18:04:20.466Z,86.90
2018-01-06T18:06:52.707Z,87.00
2018-01-06T18:09:26.252Z,87.00
2018-01-06T18:12:03.879Z,86.70
2018-01-06T18:14:42.255Z,86.70
2018-01-06T18:17:14.958Z,87.30
2018-01-06T18:19:49.341Z,87.00
2018-01-06T18:22:42.368Z,86.90
2018-01-06T18:25:22.195Z,87.00
2018-01-06T18:27:54.596Z,87.00
2018-01-06T18:30:25.559Z,87.00
2018-01-06T18:32:57.814Z,86.50
2018-01-06T18:35:29.477Z,87.00
2018-01-06T18:38:02.430Z,86.70
2018-01-06T18:40:35.763Z,86.70
2018-01-06T18:43:10.994Z,86.90
2018-01-06T18:45:41.343Z,86.80
2018-01-06T18:48:10.801Z,86.80
2018-01-06T18:50:40.446Z,86.90
2018-01-06T18:53:11.085Z,86.60
2018-01-06T18:55:42.282Z,86.80
2018-01-06T18:58:13.272Z,86.70
2018-01-06T19:00:58.882Z,86.70
2018-01-06T19:03:36.172Z,86.00
2018-01-06T19:06:18.399Z,85.90
2018-01-06T19:08:50.457Z,86.10
2018-01-06T19:11:23.779Z,85.90
2018-01-06T19:13:57.062Z,85.80
2018-01-06T19:16:28.011Z,85.80
2018-01-06T19:19:00.450Z,86.10
2018-01-06T19:21:53.202Z,85.80
2018-01-06T19:24:36.652Z,85.60
2018-01-06T19:27:31.279Z,85.60
2018-01-06T19:30:02.471Z,86.20
2018-01-06T19:32:38.222Z,85.80
2018-01-06T19:35:10.464Z,85.70
2018-01-06T19:37:44.654Z,86.30
2018-01-06T19:40:16.346Z,86.10
2018-01-06T19:42:54.917Z,86.00
2018-01-06T19:45:25.740Z,85.70
2018-01-06T19:47:59.806Z,86.30
2018-01-06T19:51:11.457Z,85.80
2018-01-06T19:53:42.465Z,85.80
2018-01-06T19:56:22.435Z,86.10
2018-01-06T19:58:55.343Z,86.40
2018-01-06T20:01:27.496Z,86.00
2018-01-06T20:04:00.556Z,86.30
2018-01-06T20:06:42.212Z,86.70
2018-01-06T20:09:20.673Z,86.50
2018-01-06T20:11:54.263Z,86.50
2018-01-06T20:14:26.223Z,86.60
2018-01-06T20:16:57.057Z,86.60
2018-01-06T20:19:31.918Z,86.60
2018-01-06T20:22:07.224Z,86.60
2018-01-06T20:24:45.190Z,86.80
2018-01-06T20:27:22.641Z,86.70
2018-01-06T20:30:00.072Z,86.60
2018-01-06T20:32:31.599Z,86.70
2018-01-06T20:35:02.010Z,87.10
2018-01-06T20:37:42.595Z,87.10
2018-01-06T20:40:14.857Z,86.90
2018-01-06T20:42:54.318Z,86.90
2018-01-06T20:45:29.775Z,86.90
2018-01-06T20:48:01.612Z,87.10
2018-01-06T20:50:44.699Z,87.00
2018-01-06T20:53:18.652Z,87.00
2018-01-06T20:55:52.894Z,87.20
2018-01-06T20:58:28.476Z,86.50
2018-01-06T21:01:02.392Z,86.60
2018-01-06T21:03:37.951Z,86.70
2018-01-06T21:06:16.945Z,87.00
2018-01-06T21:08:51.697Z,87.10
2018-01-06T21:11:23.143Z,87.00
2018-01-06T21:13:55.576Z,87.10
2018-01-06T21:16:28.262Z,87.00
2018-01-06T21:19:07.023Z,86.40
2018-01-06T21:21:38.265Z,86.70
2018-01-06T21:24:12.217Z,86.70
2018-01-06T21:26:43.455Z,87.10
2018-01-06T21:29:14.959Z,87.00
2018-01-06T21:31:46.678Z,87.00
2018-01-06T21:34:19.551Z,86.60
2018-01-06T21:36:52.938Z,86.70
2018-01-06T21:39:27.035Z,86.50
2018-01-06T21:41:59.453Z,86.60
2018-01-06T21:44:33.455Z,86.50
2018-01-06T21:47:10.650Z,86.70
2018-01-06T21:50:20.234Z,86.70
2018-01-06T21:56:30.115Z,87.50
2018-01-06T21:59:02.414Z,86.80
2018-01-06T22:01:33.992Z,86.90
2018-01-06T22:04:10.512Z,87.00
2018-01-06T22:06:41.988Z,87.00
2018-01-06T22:09:15.097Z,86.20
2018-01-06T22:11:44.582Z,86.70
2018-01-06T22:14:19.004Z,86.80
2018-01-06T22:17:14.885Z,86.90
2018-01-06T22:19:49.103Z,87.00
2018-01-06T22:22:23.436Z,87.00
2018-01-06T22:24:59.369Z,87.20
2018-01-06T22:27:32.472Z,86.90
2018-01-06T22:30:13.163Z,86.80
2018-01-06T22:33:04.243Z,87.10
2018-01-06T22:35:36.401Z,87.00
2018-01-06T22:38:09.507Z,87.00
2018-01-06T22:40:42.478Z,87.00
2018-01-06T22:43:15.126Z,87.00
2018-01-06T22:45:51.949Z,87.00
2018-01-06T22:48:30.038Z,87.00
2018-01-06T22:51:07.531Z,87.40
2018-01-06T22:53:41.515Z,86.70
2018-01-06T22:56:14.162Z,87.00
2018-01-06T22:58:45.840Z,87.00
2018-01-06T23:01:21.213Z,87.00
2018-01-06T23:03:54.299Z,86.80
2018-01-06T23:06:27.617Z,86.80
2018-01-06T23:09:05.638Z,86.50
2018-01-06T23:11:38.853Z,86.80
2018-01-06T23:14:11.695Z,86.90
2018-01-06T23:16:42.481Z,86.70
2018-01-06T23:19:13.729Z,86.40
2018-01-06T23:21:45.471Z,86.40
2018-01-06T23:24:18.613Z,86.80
2018-01-06T23:26:55.298Z,86.80
2018-01-06T23:29:27.622Z,86.50
2018-01-06T23:32:00.240Z,86.60
2018-01-06T23:34:31.238Z,86.30
2018-01-06T23:37:02.014Z,86.40
2018-01-06T23:39:34.376Z,86.00
2018-01-06T23:42:07.243Z,86.20
2018-01-06T23:44:38.557Z,86.20
2018-01-06T23:47:10.929Z,86.40
2018-01-06T23:49:42.023Z,86.60
2018-01-06T23:52:12.818Z,86.60
2018-01-06T23:54:43.084Z,87.70
2018-01-06T23:57:15.475Z,87.10
2018-01-06T23:59:46.341Z,87.10
